Main page
METAR-TAF:

METAR-TAF

Airports :

Yüksekova, Turkey

Hakkari–Yüksekova Airport

latitude: 37-33-06N, longitude: 44-14-01E, elevation: 1950 m

Current weather observation

The report was made 7 hours and 30 minutes ago, at 12:50 UTC
Calm wind
Temperature -1°C
Humidity 74%
Pressure 1025 hPa
Visibility: 6000 m
Scattered clouds at a height of 4000 ft

METAR: LTCW 181250Z 00000KT 6000 SCT040 M01/M05 Q1025

Time: 23:20 (20:20 UTC)

Forecast

The report was made 6 hours and 40 minutes ago, at 13:40 UTC
Forecast valid from 18 at 15 UTC to 18 at 24 UTC
Wind 2 kt from variable directions
Visibility: 5000 m
Scattered clouds at a height of 4000 ft
mist
Temporary
from 18 at 16 UTC to 18 at 20 UTC
Visibility: 2000 m

TAF: LTCW 181340Z 1815/1824 VRB02KT 5000 BR SCT040 TEMPO 1816/1820 2000

Weather observations and forecasts of more than 4000 airports (METAR and TAF reports).

The available stations are represented by yellow and red dots on the map.

Hover mouse over dot to see the name of the station.

Then click to see weather observations and forecasts.

To change the map : click on the green buttons with a black cross to zoom in, on the green button with a dash to zoom out, or on the green arrows for adjacent maps.


METAR-TAF: